createdAt,value
2022-12-15T00:01:01.183Z,87.61
2022-12-15T00:04:23.077Z,87.45
2022-12-15T00:07:44.692Z,87.54
2022-12-15T00:11:06.116Z,87.48
2022-12-15T00:14:27.666Z,87.56
2022-12-15T00:17:49.252Z,87.62
2022-12-15T00:21:10.840Z,87.31
2022-12-15T00:24:32.108Z,86.95
2022-12-15T00:27:53.801Z,86.90
2022-12-15T00:31:17.744Z,87.02
2022-12-15T00:34:39.403Z,87.30
2022-12-15T00:38:01.268Z,87.30
2022-12-15T00:41:04.594Z,87.14
2022-12-15T00:44:07.337Z,86.76
2022-12-15T00:47:10.066Z,86.76
2022-12-15T00:50:31.622Z,86.65
2022-12-15T00:53:53.435Z,86.76
2022-12-15T00:57:15.205Z,86.83
2022-12-15T01:00:36.489Z,86.97
2022-12-15T01:03:58.099Z,86.87
2022-12-15T01:07:19.428Z,86.90
2022-12-15T01:10:40.987Z,86.87
2022-12-15T01:14:02.574Z,86.78
2022-12-15T01:17:24.173Z,86.55
2022-12-15T01:20:26.916Z,86.70
2022-12-15T01:23:32.093Z,86.99
2022-12-15T01:26:35.095Z,87.28
2022-12-15T01:29:37.892Z,87.33
2022-12-15T01:32:45.803Z,87.24
2022-12-15T01:36:00.395Z,86.89
2022-12-15T01:39:03.418Z,86.94
2022-12-15T01:42:06.152Z,87.43
2022-12-15T01:45:24.460Z,87.69
2022-12-15T01:48:43.558Z,88.56
2022-12-15T01:51:55.628Z,88.23
2022-12-15T01:54:58.624Z,88.90
2022-12-15T01:58:06.816Z,88.94
2022-12-15T02:01:10.628Z,89.16
2022-12-15T02:04:14.994Z,88.33
2022-12-15T02:07:19.084Z,88.37
2022-12-15T02:10:27.913Z,88.05
2022-12-15T02:14:02.616Z,87.66
2022-12-15T02:17:27.249Z,87.60
2022-12-15T02:20:48.892Z,87.93
2022-12-15T02:24:10.796Z,87.89
2022-12-15T02:27:25.506Z,87.92
2022-12-15T02:31:14.226Z,87.96
2022-12-15T02:34:26.456Z,88.10
2022-12-15T02:37:33.185Z,87.77
2022-12-15T02:40:36.119Z,87.58
2022-12-15T02:43:39.782Z,88.10
2022-12-15T02:47:14.638Z,88.09
2022-12-15T02:50:59.451Z,88.11
2022-12-15T02:54:33.092Z,88.44
2022-12-15T02:58:13.316Z,88.34
2022-12-15T03:01:25.059Z,88.05
2022-12-15T03:04:28.243Z,87.99
2022-12-15T03:07:31.109Z,87.89
2022-12-15T03:10:34.278Z,87.85
2022-12-15T03:13:37.105Z,87.96
2022-12-15T03:16:39.878Z,88.35
2022-12-15T03:19:42.832Z,88.08
2022-12-15T03:22:45.670Z,88.17
2022-12-15T03:25:49.906Z,87.97
2022-12-15T03:28:52.949Z,88.10
2022-12-15T03:31:55.836Z,88.44
2022-12-15T03:34:58.704Z,88.70
2022-12-15T03:38:01.712Z,88.62
2022-12-15T03:41:04.468Z,88.70
2022-12-15T03:44:07.471Z,89.00
2022-12-15T03:47:10.200Z,88.73
2022-12-15T03:50:15.105Z,88.78
2022-12-15T03:53:17.844Z,88.92
2022-12-15T03:56:20.936Z,89.01
2022-12-15T03:59:23.808Z,88.80
2022-12-15T04:02:26.720Z,88.88
2022-12-15T04:05:33.134Z,88.63
2022-12-15T04:08:35.934Z,88.51
2022-12-15T04:11:38.729Z,88.01
2022-12-15T04:14:42.708Z,88.21
2022-12-15T04:17:45.680Z,88.14
2022-12-15T04:20:50.173Z,88.34
2022-12-15T04:24:11.618Z,88.44
2022-12-15T04:27:33.087Z,88.53
2022-12-15T04:30:55.046Z,88.49
2022-12-15T04:34:23.060Z,88.73
2022-12-15T04:37:44.680Z,88.55
2022-12-15T04:41:06.223Z,88.55
2022-12-15T04:44:29.716Z,88.80
2022-12-15T04:47:51.134Z,89.02
2022-12-15T04:51:13.173Z,89.42
2022-12-15T04:54:34.525Z,89.00
2022-12-15T04:57:56.161Z,88.97
2022-12-15T05:01:17.759Z,89.13
2022-12-15T05:04:39.628Z,89.02
2022-12-15T05:08:01.305Z,89.33
2022-12-15T05:11:22.975Z,89.45
2022-12-15T05:14:44.680Z,89.31
2022-12-15T05:18:11.700Z,89.64
2022-12-15T05:21:33.523Z,89.32
2022-12-15T05:24:54.858Z,88.94
2022-12-15T05:28:16.455Z,88.74
2022-12-15T05:31:38.005Z,89.14
2022-12-15T05:34:40.916Z,89.04
2022-12-15T05:37:43.786Z,89.20
2022-12-15T05:40:46.531Z,89.07
2022-12-15T05:43:49.649Z,89.32
2022-12-15T05:46:52.591Z,89.12
2022-12-15T05:49:55.399Z,88.93
2022-12-15T05:52:59.909Z,88.79
2022-12-15T05:56:07.612Z,89.21
2022-12-15T05:59:11.330Z,89.23
2022-12-15T06:02:14.268Z,89.41
2022-12-15T06:05:17.796Z,89.35
2022-12-15T06:08:20.514Z,89.26
2022-12-15T06:11:23.292Z,89.15
2022-12-15T06:14:26.070Z,89.35
2022-12-15T06:17:28.914Z,89.44
2022-12-15T06:20:31.734Z,89.83
2022-12-15T06:23:36.563Z,89.65
2022-12-15T06:26:40.338Z,89.92
2022-12-15T06:29:43.120Z,89.85
2022-12-15T06:32:45.940Z,89.81
2022-12-15T06:35:52.666Z,89.75
2022-12-15T06:38:59.457Z,90.12
2022-12-15T06:42:02.365Z,89.96
2022-12-15T06:45:05.502Z,89.98
2022-12-15T06:48:08.425Z,90.40
2022-12-15T06:51:16.777Z,90.18
2022-12-15T06:54:20.496Z,90.20
2022-12-15T06:57:23.392Z,90.31
2022-12-15T07:00:28.027Z,89.99
2022-12-15T07:03:31.402Z,89.84
2022-12-15T07:06:36.903Z,89.93
2022-12-15T07:09:40.118Z,90.11
2022-12-15T07:12:42.966Z,90.09
2022-12-15T07:15:45.932Z,89.76
2022-12-15T07:18:49.047Z,89.52
2022-12-15T07:21:53.017Z,89.30
2022-12-15T07:24:55.847Z,89.14
2022-12-15T07:27:58.608Z,89.28
2022-12-15T07:31:07.686Z,89.02
2022-12-15T07:34:10.560Z,89.14
2022-12-15T07:37:13.426Z,89.13
2022-12-15T07:40:16.786Z,89.25
2022-12-15T07:43:21.981Z,89.22
2022-12-15T07:46:26.201Z,89.29
2022-12-15T07:49:29.069Z,89.12
2022-12-15T07:52:31.916Z,89.35
2022-12-15T07:56:05.078Z,88.82
2022-12-15T07:58:59.790Z,88.98
2022-12-15T08:02:06.680Z,88.99
2022-12-15T08:05:10.824Z,88.91
2022-12-15T08:08:15.440Z,89.26
2022-12-15T08:11:21.363Z,89.12
2022-12-15T08:14:24.997Z,88.85
2022-12-15T08:17:28.072Z,89.13
2022-12-15T08:20:31.416Z,87.85
2022-12-15T08:23:35.007Z,86.47
2022-12-15T08:26:38.788Z,86.10
2022-12-15T08:29:51.058Z,86.50
2022-12-15T08:32:55.103Z,86.32
2022-12-15T08:36:01.749Z,85.96
2022-12-15T08:39:04.676Z,86.12
2022-12-15T08:42:07.564Z,86.57
2022-12-15T08:45:12.492Z,86.74
2022-12-15T08:48:15.848Z,86.96
2022-12-15T08:51:19.311Z,86.38
2022-12-15T08:54:22.204Z,86.05
2022-12-15T08:57:25.172Z,85.95
2022-12-15T09:00:28.049Z,86.25
2022-12-15T09:03:31.432Z,86.70
2022-12-15T09:06:36.943Z,86.64
2022-12-15T09:09:39.765Z,86.30
2022-12-15T09:12:42.624Z,86.01
2022-12-15T09:16:09.021Z,86.04
2022-12-15T09:19:09.668Z,86.85
2022-12-15T09:22:12.591Z,87.39
2022-12-15T09:25:15.488Z,87.89
2022-12-15T09:28:18.383Z,88.40
2022-12-15T09:31:24.394Z,88.31
2022-12-15T09:34:27.495Z,88.28
2022-12-15T09:37:31.623Z,88.49
2022-12-15T09:40:34.494Z,88.67
2022-12-15T09:43:46.712Z,88.42
2022-12-15T09:46:53.394Z,88.27
2022-12-15T09:49:58.651Z,87.85
2022-12-15T09:53:03.269Z,87.76
2022-12-15T09:56:18.220Z,87.83
2022-12-15T09:59:39.145Z,87.47
2022-12-15T10:03:13.576Z,86.91
2022-12-15T10:06:32.745Z,86.35
2022-12-15T10:09:37.396Z,85.59
2022-12-15T10:12:53.132Z,84.50
2022-12-15T10:16:09.085Z,83.94
2022-12-15T10:19:14.348Z,83.77
2022-12-15T10:22:24.174Z,83.36
2022-12-15T10:25:30.983Z,83.13
2022-12-15T10:29:16.803Z,83.23
2022-12-15T10:32:30.145Z,82.54
2022-12-15T10:35:36.324Z,83.19
2022-12-15T10:38:45.434Z,83.50
2022-12-15T10:42:16.356Z,83.41
2022-12-15T10:45:40.811Z,83.10
2022-12-15T10:48:48.729Z,82.40
2022-12-15T10:51:57.385Z,82.79
2022-12-15T10:55:00.576Z,82.60
2022-12-15T10:58:14.466Z,82.95
2022-12-15T11:01:24.386Z,82.80
2022-12-15T11:04:32.487Z,82.46
2022-12-15T11:07:51.843Z,82.21
2022-12-15T11:11:13.617Z,81.75
2022-12-15T11:14:25.538Z,81.87
2022-12-15T11:17:41.031Z,82.02
2022-12-15T11:20:50.886Z,82.25
2022-12-15T11:23:59.800Z,82.28
2022-12-15T11:27:28.704Z,82.16
2022-12-15T11:30:42.735Z,80.64
2022-12-15T11:33:45.780Z,79.78
2022-12-15T11:37:07.783Z,80.59
2022-12-15T11:40:50.552Z,80.68
2022-12-15T11:44:04.323Z,80.37
2022-12-15T11:47:29.461Z,80.46
2022-12-15T11:51:01.101Z,81.52
2022-12-15T11:54:39.638Z,80.73
2022-12-15T11:57:45.267Z,80.14
2022-12-15T12:01:05.101Z,80.64
2022-12-15T12:04:35.308Z,80.82
2022-12-15T12:07:44.822Z,81.25
2022-12-15T12:10:58.398Z,81.77
2022-12-15T12:14:50.722Z,80.89
2022-12-15T12:17:58.266Z,81.02
2022-12-15T12:21:07.852Z,81.19
2022-12-15T12:24:43.924Z,81.46
2022-12-15T12:28:00.718Z,80.81
2022-12-15T12:31:05.704Z,80.28
2022-12-15T12:34:14.702Z,80.75
2022-12-15T12:37:31.437Z,79.68
2022-12-15T12:40:40.464Z,80.32
2022-12-15T12:43:51.115Z,79.77
2022-12-15T12:46:57.446Z,79.76
2022-12-15T12:50:07.012Z,79.50
2022-12-15T12:53:32.411Z,80.32
2022-12-15T12:56:50.383Z,80.50
2022-12-15T13:00:09.035Z,81.04
2022-12-15T13:03:11.961Z,80.19
2022-12-15T13:06:40.998Z,80.73
2022-12-15T13:09:44.376Z,80.54
2022-12-15T13:12:53.546Z,80.36
2022-12-15T13:16:19.339Z,80.13
2022-12-15T13:20:00.860Z,79.86
2022-12-15T13:23:22.249Z,79.06
2022-12-15T13:26:31.116Z,79.06
2022-12-15T13:29:35.237Z,79.65
2022-12-15T13:32:47.020Z,79.62
2022-12-15T13:35:51.703Z,80.08
2022-12-15T13:38:55.938Z,80.70
2022-12-15T13:42:32.011Z,80.82
2022-12-15T13:45:50.591Z,80.59
2022-12-15T13:49:10.467Z,81.21
2022-12-15T13:56:07.051Z,81.65
2022-12-15T13:59:38.794Z,80.85
2022-12-15T14:02:41.715Z,81.15
2022-12-15T14:05:56.302Z,81.55
2022-12-15T14:09:00.168Z,82.21
2022-12-15T14:12:06.136Z,82.29
2022-12-15T14:15:16.909Z,82.61
2022-12-15T14:18:45.908Z,82.84
2022-12-15T14:21:56.410Z,83.20
2022-12-15T14:25:13.650Z,82.94
2022-12-15T14:28:30.504Z,83.14
2022-12-15T14:31:33.900Z,83.26
2022-12-15T14:34:41.977Z,83.25
2022-12-15T14:37:45.824Z,83.82
2022-12-15T14:40:51.380Z,83.93
2022-12-15T14:44:37.397Z,83.84
2022-12-15T14:47:31.891Z,83.44
2022-12-15T14:50:36.441Z,83.72
2022-12-15T14:53:42.815Z,83.87
2022-12-15T14:56:45.597Z,83.91
2022-12-15T14:59:48.844Z,83.88
2022-12-15T15:03:09.591Z,81.77
2022-12-15T15:06:49.050Z,84.97
2022-12-15T15:09:55.525Z,84.92
2022-12-15T15:12:59.248Z,84.73
2022-12-15T15:16:07.111Z,85.40
2022-12-15T15:19:22.667Z,85.91
2022-12-15T15:22:30.615Z,85.91
2022-12-15T15:25:39.242Z,85.48
2022-12-15T15:28:44.747Z,85.52
2022-12-15T15:31:47.600Z,86.10
2022-12-15T15:34:51.266Z,86.11
2022-12-15T15:37:59.257Z,86.35
2022-12-15T15:41:20.710Z,85.82
2022-12-15T15:44:23.556Z,85.99
2022-12-15T15:47:27.358Z,86.42
2022-12-15T15:50:30.399Z,86.66
2022-12-15T15:53:34.886Z,86.69
2022-12-15T15:56:38.022Z,86.36
2022-12-15T15:59:42.482Z,86.18
2022-12-15T16:02:45.586Z,86.79
2022-12-15T16:05:48.700Z,87.04
2022-12-15T16:08:53.919Z,87.30
2022-12-15T16:11:58.007Z,87.25
2022-12-15T16:15:00.950Z,86.72
2022-12-15T16:18:04.264Z,86.72
2022-12-15T16:21:14.019Z,87.17
2022-12-15T16:24:19.229Z,87.20
2022-12-15T16:27:22.893Z,87.24
2022-12-15T16:30:27.722Z,86.65
2022-12-15T16:33:30.520Z,87.08
2022-12-15T16:36:33.612Z,87.26
2022-12-15T16:39:36.601Z,87.47
2022-12-15T16:42:39.393Z,87.54
2022-12-15T16:45:47.817Z,87.43
2022-12-15T16:48:51.818Z,87.06
2022-12-15T16:51:55.696Z,87.02
2022-12-15T16:54:58.633Z,87.72
2022-12-15T16:58:07.575Z,88.04
2022-12-15T17:01:11.674Z,87.83
2022-12-15T17:04:16.701Z,87.79
2022-12-15T17:07:20.561Z,87.92
2022-12-15T17:10:26.337Z,88.52
2022-12-15T17:13:45.708Z,88.41
2022-12-15T17:16:48.795Z,88.14
2022-12-15T17:20:27.402Z,88.19
2022-12-15T17:23:18.386Z,88.50
2022-12-15T17:26:29.673Z,88.83
2022-12-15T17:29:33.650Z,88.62
2022-12-15T17:32:36.538Z,88.53
2022-12-15T17:35:39.302Z,88.11
2022-12-15T17:38:42.258Z,88.89
2022-12-15T17:42:02.098Z,88.80
2022-12-15T17:45:17.484Z,88.96
2022-12-15T17:48:20.277Z,89.05
2022-12-15T17:51:23.036Z,89.07
2022-12-15T17:54:25.849Z,88.63
2022-12-15T17:57:31.832Z,88.03
2022-12-15T18:00:34.644Z,87.98
2022-12-15T18:03:38.052Z,88.22
2022-12-15T18:06:43.528Z,88.48
2022-12-15T18:09:46.944Z,88.36
2022-12-15T18:12:50.055Z,88.01
2022-12-15T18:15:53.979Z,87.55
2022-12-15T18:18:56.805Z,87.77
2022-12-15T18:21:59.687Z,87.95
2022-12-15T18:25:02.435Z,87.91
2022-12-15T18:28:15.212Z,87.86
2022-12-15T18:31:23.804Z,86.89
2022-12-15T18:34:26.710Z,87.02
2022-12-15T18:37:29.567Z,87.56
2022-12-15T18:40:32.361Z,87.77
2022-12-15T18:43:35.606Z,87.88
2022-12-15T18:46:40.958Z,87.52
2022-12-15T18:49:47.679Z,87.31
2022-12-15T18:52:58.095Z,87.75
2022-12-15T18:56:02.728Z,87.99
2022-12-15T18:59:10.733Z,88.15
2022-12-15T19:02:13.620Z,88.20
2022-12-15T19:05:32.813Z,88.55
2022-12-15T19:08:38.137Z,88.70
2022-12-15T19:12:01.247Z,88.75
2022-12-15T19:15:06.946Z,88.74
2022-12-15T19:18:36.731Z,89.24
2022-12-15T19:21:48.542Z,89.34
2022-12-15T19:24:57.154Z,89.31
2022-12-15T19:28:01.278Z,89.27
2022-12-15T19:31:04.205Z,89.01
2022-12-15T19:34:07.496Z,89.11
2022-12-15T19:37:32.693Z,88.78
2022-12-15T19:40:37.516Z,88.86
2022-12-15T19:43:40.289Z,88.55
2022-12-15T19:46:44.006Z,88.41
2022-12-15T19:49:46.748Z,88.38
2022-12-15T19:52:52.468Z,88.57
2022-12-15T19:55:58.381Z,88.94
2022-12-15T19:59:01.214Z,88.65
2022-12-15T20:02:04.508Z,88.47
2022-12-15T20:05:07.803Z,88.12
2022-12-15T20:08:17.863Z,88.53
2022-12-15T20:11:25.035Z,88.60
2022-12-15T20:14:28.063Z,88.99
2022-12-15T20:17:30.836Z,89.01
2022-12-15T20:20:33.839Z,88.91
2022-12-15T20:23:57.803Z,88.94
2022-12-15T20:27:00.702Z,88.90
2022-12-15T20:30:03.849Z,88.87
2022-12-15T20:33:06.754Z,88.80
2022-12-15T20:36:14.052Z,88.89
2022-12-15T20:39:26.057Z,89.05
2022-12-15T20:42:28.842Z,89.10
2022-12-15T20:45:31.704Z,89.00
2022-12-15T20:48:36.747Z,89.17
2022-12-15T20:51:39.704Z,89.14
2022-12-15T20:54:42.967Z,88.56
2022-12-15T20:57:45.756Z,88.53
2022-12-15T21:00:49.804Z,88.29
2022-12-15T21:03:57.405Z,87.91
2022-12-15T21:07:00.167Z,88.22
2022-12-15T21:10:03.262Z,88.16
2022-12-15T21:13:15.533Z,88.12
2022-12-15T21:16:21.913Z,88.13
2022-12-15T21:19:25.022Z,88.14
2022-12-15T21:22:29.015Z,88.37
2022-12-15T21:25:31.980Z,88.32
2022-12-15T21:28:35.017Z,88.68
2022-12-15T21:31:37.981Z,88.83
2022-12-15T21:34:41.092Z,88.52
2022-12-15T21:37:47.343Z,88.44
2022-12-15T21:40:56.001Z,88.39
2022-12-15T21:44:02.070Z,88.31
2022-12-15T21:47:25.794Z,88.40
2022-12-15T21:50:28.770Z,88.47
2022-12-15T21:53:31.601Z,88.76
2022-12-15T21:56:34.374Z,88.34
2022-12-15T21:59:37.628Z,88.16
2022-12-15T22:02:40.930Z,88.18
2022-12-15T22:05:43.931Z,87.95
2022-12-15T22:08:47.118Z,88.36
2022-12-15T22:11:56.238Z,88.29
2022-12-15T22:14:59.971Z,87.90
2022-12-15T22:18:02.694Z,87.74
2022-12-15T22:21:07.785Z,87.85
2022-12-15T22:24:10.850Z,87.91
2022-12-15T22:27:20.185Z,88.06
2022-12-15T22:30:25.465Z,88.05
2022-12-15T22:33:28.337Z,88.20
2022-12-15T22:36:31.064Z,88.25
2022-12-15T22:39:34.009Z,88.21
2022-12-15T22:42:39.713Z,88.13
2022-12-15T22:45:42.938Z,88.35
2022-12-15T22:48:49.895Z,88.45
2022-12-15T22:51:53.220Z,88.56
2022-12-15T22:54:58.529Z,88.41
2022-12-15T22:58:07.058Z,88.66
2022-12-15T23:01:10.381Z,88.76
2022-12-15T23:04:13.201Z,88.72
2022-12-15T23:07:15.988Z,88.88
2022-12-15T23:10:38.523Z,89.16
2022-12-15T23:13:41.277Z,89.28
2022-12-15T23:16:46.469Z,89.23
2022-12-15T23:19:49.260Z,89.65
2022-12-15T23:22:52.040Z,89.71
2022-12-15T23:25:55.685Z,89.70
2022-12-15T23:28:58.438Z,89.68
2022-12-15T23:32:01.183Z,89.89
2022-12-15T23:35:05.597Z,89.85
2022-12-15T23:38:08.425Z,90.39
2022-12-15T23:41:16.813Z,90.23
2022-12-15T23:44:19.551Z,90.11
2022-12-15T23:47:22.311Z,90.16
2022-12-15T23:50:25.111Z,90.01
2022-12-15T23:53:27.886Z,90.04
2022-12-15T23:56:30.618Z,90.03
2022-12-15T23:59:33.356Z,89.79
